sensor_id;sensor_type;location;lat;lon;timestamp;temperature;humidity
9373;DHT22;10838;52.350;9.790;2022-09-14T00:00:30;14.00;95.30
9373;DHT22;10838;52.350;9.790;2022-09-14T00:02:56;13.90;95.30
9373;DHT22;10838;52.350;9.790;2022-09-14T00:05:23;13.90;95.30
9373;DHT22;10838;52.350;9.790;2022-09-14T00:07:50;13.90;95.30
9373;DHT22;10838;52.350;9.790;2022-09-14T00:10:16;13.90;95.30
9373;DHT22;10838;52.350;9.790;2022-09-14T00:12:44;13.80;95.30
9373;DHT22;10838;52.350;9.790;2022-09-14T00:15:11;13.80;95.30
9373;DHT22;10838;52.350;9.790;2022-09-14T00:17:37;13.80;95.30
9373;DHT22;10838;52.350;9.790;2022-09-14T00:20:05;13.80;95.30
9373;DHT22;10838;52.350;9.790;2022-09-14T00:22:32;13.80;95.30
9373;DHT22;10838;52.350;9.790;2022-09-14T00:24:58;13.70;95.30
9373;DHT22;10838;52.350;9.790;2022-09-14T00:27:25;13.70;95.30
9373;DHT22;10838;52.350;9.790;2022-09-14T00:29:52;13.70;95.30
9373;DHT22;10838;52.350;9.790;2022-09-14T00:32:19;13.70;95.30
9373;DHT22;10838;52.350;9.790;2022-09-14T00:34:46;13.70;95.30
9373;DHT22;10838;52.350;9.790;2022-09-14T00:37:12;13.70;95.30
9373;DHT22;10838;52.350;9.790;2022-09-14T00:39:39;13.60;95.30
9373;DHT22;10838;52.350;9.790;2022-09-14T00:42:06;13.60;95.30
9373;DHT22;10838;52.350;9.790;2022-09-14T00:45:03;13.60;95.30
9373;DHT22;10838;52.350;9.790;2022-09-14T00:47:32;13.60;95.30
9373;DHT22;10838;52.350;9.790;2022-09-14T00:50:02;13.50;95.30
9373;DHT22;10838;52.350;9.790;2022-09-14T00:52:31;13.50;95.30
9373;DHT22;10838;52.350;9.790;2022-09-14T00:55:01;13.50;95.30
9373;DHT22;10838;52.350;9.790;2022-09-14T00:57:32;13.50;95.30
9373;DHT22;10838;52.350;9.790;2022-09-14T00:59:59;13.50;95.40
9373;DHT22;10838;52.350;9.790;2022-09-14T01:02:28;13.40;95.30
9373;DHT22;10838;52.350;9.790;2022-09-14T01:04:55;13.40;95.40
9373;DHT22;10838;52.350;9.790;2022-09-14T01:07:32;13.40;95.40
9373;DHT22;10838;52.350;9.790;2022-09-14T01:10:10;13.40;95.40
9373;DHT22;10838;52.350;9.790;2022-09-14T01:12:45;13.40;95.40
9373;DHT22;10838;52.350;9.790;2022-09-14T01:15:16;13.40;95.40
9373;DHT22;10838;52.350;9.790;2022-09-14T01:17:53;13.30;95.40
9373;DHT22;10838;52.350;9.790;2022-09-14T01:20:25;13.30;95.40
9373;DHT22;10838;52.350;9.790;2022-09-14T01:23:00;13.30;95.40
9373;DHT22;10838;52.350;9.790;2022-09-14T01:25:44;13.30;95.40
9373;DHT22;10838;52.350;9.790;2022-09-14T01:28:22;13.30;95.40
9373;DHT22;10838;52.350;9.790;2022-09-14T01:30:52;13.30;95.50
9373;DHT22;10838;52.350;9.790;2022-09-14T01:33:23;13.30;95.50
9373;DHT22;10838;52.350;9.790;2022-09-14T01:35:55;13.30;95.50
9373;DHT22;10838;52.350;9.790;2022-09-14T01:38:26;13.30;95.50
9373;DHT22;10838;52.350;9.790;2022-09-14T01:40:55;13.30;95.50
9373;DHT22;10838;52.350;9.790;2022-09-14T01:43:26;13.30;95.50
9373;DHT22;10838;52.350;9.790;2022-09-14T01:45:57;13.30;95.50
9373;DHT22;10838;52.350;9.790;2022-09-14T01:48:30;13.30;95.50
9373;DHT22;10838;52.350;9.790;2022-09-14T01:50:59;13.30;95.50
9373;DHT22;10838;52.350;9.790;2022-09-14T01:53:30;13.30;95.60
9373;DHT22;10838;52.350;9.790;2022-09-14T01:56:02;13.30;95.60
9373;DHT22;10838;52.350;9.790;2022-09-14T01:58:35;13.30;95.60
9373;DHT22;10838;52.350;9.790;2022-09-14T02:01:05;13.30;95.60
9373;DHT22;10838;52.350;9.790;2022-09-14T02:03:37;13.30;95.60
9373;DHT22;10838;52.350;9.790;2022-09-14T02:06:09;13.30;95.60
9373;DHT22;10838;52.350;9.790;2022-09-14T02:08:39;13.30;95.60
9373;DHT22;10838;52.350;9.790;2022-09-14T02:11:05;13.30;95.60
9373;DHT22;10838;52.350;9.790;2022-09-14T02:13:33;13.30;95.60
9373;DHT22;10838;52.350;9.790;2022-09-14T02:16:00;13.30;95.60
9373;DHT22;10838;52.350;9.790;2022-09-14T02:18:27;13.30;95.60
9373;DHT22;10838;52.350;9.790;2022-09-14T02:20:56;13.30;95.70
9373;DHT22;10838;52.350;9.790;2022-09-14T02:23:23;13.30;95.70
9373;DHT22;10838;52.350;9.790;2022-09-14T02:25:50;13.30;95.70
9373;DHT22;10838;52.350;9.790;2022-09-14T02:28:17;13.20;95.70
9373;DHT22;10838;52.350;9.790;2022-09-14T02:30:57;13.20;95.70
9373;DHT22;10838;52.350;9.790;2022-09-14T02:33:32;13.20;95.70
9373;DHT22;10838;52.350;9.790;2022-09-14T02:36:07;13.20;95.70
9373;DHT22;10838;52.350;9.790;2022-09-14T02:38:44;13.20;95.70
9373;DHT22;10838;52.350;9.790;2022-09-14T02:41:17;13.20;95.70
9373;DHT22;10838;52.350;9.790;2022-09-14T02:43:53;13.20;95.70
9373;DHT22;10838;52.350;9.790;2022-09-14T02:46:35;13.20;95.70
9373;DHT22;10838;52.350;9.790;2022-09-14T02:49:08;13.10;95.70
9373;DHT22;10838;52.350;9.790;2022-09-14T02:51:42;13.10;95.70
9373;DHT22;10838;52.350;9.790;2022-09-14T02:54:15;13.10;95.70
9373;DHT22;10838;52.350;9.790;2022-09-14T02:56:43;13.10;95.70
9373;DHT22;10838;52.350;9.790;2022-09-14T02:59:10;13.10;95.70
9373;DHT22;10838;52.350;9.790;2022-09-14T03:01:39;13.10;95.70
9373;DHT22;10838;52.350;9.790;2022-09-14T03:04:05;13.10;95.70
9373;DHT22;10838;52.350;9.790;2022-09-14T03:06:32;13.10;95.70
9373;DHT22;10838;52.350;9.790;2022-09-14T03:08:58;13.00;95.70
9373;DHT22;10838;52.350;9.790;2022-09-14T03:11:25;13.00;95.70
9373;DHT22;10838;52.350;9.790;2022-09-14T03:13:51;13.00;95.70
9373;DHT22;10838;52.350;9.790;2022-09-14T03:16:18;13.00;95.70
9373;DHT22;10838;52.350;9.790;2022-09-14T03:18:46;13.00;95.70
9373;DHT22;10838;52.350;9.790;2022-09-14T03:21:14;13.00;95.70
9373;DHT22;10838;52.350;9.790;2022-09-14T03:23:43;13.00;95.70
9373;DHT22;10838;52.350;9.790;2022-09-14T03:26:12;13.00;95.70
9373;DHT22;10838;52.350;9.790;2022-09-14T03:28:39;13.00;95.70
9373;DHT22;10838;52.350;9.790;2022-09-14T03:31:08;13.00;95.70
9373;DHT22;10838;52.350;9.790;2022-09-14T03:33:35;13.00;95.70
9373;DHT22;10838;52.350;9.790;2022-09-14T03:36:10;13.00;95.80
9373;DHT22;10838;52.350;9.790;2022-09-14T03:38:37;13.00;95.70
9373;DHT22;10838;52.350;9.790;2022-09-14T03:41:07;12.90;95.70
9373;DHT22;10838;52.350;9.790;2022-09-14T03:43:33;12.90;95.70
9373;DHT22;10838;52.350;9.790;2022-09-14T03:46:04;12.90;95.70
9373;DHT22;10838;52.350;9.790;2022-09-14T03:48:30;12.90;95.70
9373;DHT22;10838;52.350;9.790;2022-09-14T03:50:59;12.90;95.80
9373;DHT22;10838;52.350;9.790;2022-09-14T03:53:27;12.90;95.80
9373;DHT22;10838;52.350;9.790;2022-09-14T03:55:54;12.90;95.70
9373;DHT22;10838;52.350;9.790;2022-09-14T03:58:20;12.90;95.70
9373;DHT22;10838;52.350;9.790;2022-09-14T04:00:47;12.80;95.70
9373;DHT22;10838;52.350;9.790;2022-09-14T04:03:14;12.80;95.70
9373;DHT22;10838;52.350;9.790;2022-09-14T04:05:41;12.80;95.70
9373;DHT22;10838;52.350;9.790;2022-09-14T04:08:09;12.80;95.70
9373;DHT22;10838;52.350;9.790;2022-09-14T04:10:39;12.70;95.70
9373;DHT22;10838;52.350;9.790;2022-09-14T04:13:06;12.70;95.70
9373;DHT22;10838;52.350;9.790;2022-09-14T04:15:32;12.70;95.70
9373;DHT22;10838;52.350;9.790;2022-09-14T04:17:59;12.70;95.70
9373;DHT22;10838;52.350;9.790;2022-09-14T04:20:25;12.70;95.70
9373;DHT22;10838;52.350;9.790;2022-09-14T04:22:52;12.60;95.70
9373;DHT22;10838;52.350;9.790;2022-09-14T04:25:18;12.60;95.70
9373;DHT22;10838;52.350;9.790;2022-09-14T04:27:48;12.60;95.70
9373;DHT22;10838;52.350;9.790;2022-09-14T04:30:15;12.60;95.70
9373;DHT22;10838;52.350;9.790;2022-09-14T04:32:42;12.60;95.70
9373;DHT22;10838;52.350;9.790;2022-09-14T04:35:09;12.50;95.70
9373;DHT22;10838;52.350;9.790;2022-09-14T04:37:35;12.50;95.70
9373;DHT22;10838;52.350;9.790;2022-09-14T04:40:02;12.50;95.70
9373;DHT22;10838;52.350;9.790;2022-09-14T04:42:29;12.50;95.70
9373;DHT22;10838;52.350;9.790;2022-09-14T04:44:57;12.50;95.70
9373;DHT22;10838;52.350;9.790;2022-09-14T04:47:24;12.50;95.70
9373;DHT22;10838;52.350;9.790;2022-09-14T04:49:50;12.40;95.60
9373;DHT22;10838;52.350;9.790;2022-09-14T04:52:17;12.40;95.60
9373;DHT22;10838;52.350;9.790;2022-09-14T04:54:44;12.40;95.60
9373;DHT22;10838;52.350;9.790;2022-09-14T04:57:10;12.40;95.60
9373;DHT22;10838;52.350;9.790;2022-09-14T04:59:37;12.40;95.60
9373;DHT22;10838;52.350;9.790;2022-09-14T05:02:05;12.30;95.60
9373;DHT22;10838;52.350;9.790;2022-09-14T05:04:31;12.30;95.60
9373;DHT22;10838;52.350;9.790;2022-09-14T05:06:58;12.30;95.70
9373;DHT22;10838;52.350;9.790;2022-09-14T05:09:25;12.30;95.70
9373;DHT22;10838;52.350;9.790;2022-09-14T05:11:51;12.30;95.60
9373;DHT22;10838;52.350;9.790;2022-09-14T05:14:18;12.30;95.70
9373;DHT22;10838;52.350;9.790;2022-09-14T05:16:44;12.30;95.70
9373;DHT22;10838;52.350;9.790;2022-09-14T05:19:15;12.30;95.70
9373;DHT22;10838;52.350;9.790;2022-09-14T05:21:42;12.30;95.70
9373;DHT22;10838;52.350;9.790;2022-09-14T05:24:11;12.30;95.70
9373;DHT22;10838;52.350;9.790;2022-09-14T05:26:39;12.30;95.70
9373;DHT22;10838;52.350;9.790;2022-09-14T05:29:06;12.30;95.70
9373;DHT22;10838;52.350;9.790;2022-09-14T05:31:33;12.30;95.70
9373;DHT22;10838;52.350;9.790;2022-09-14T05:33:59;12.30;95.70
9373;DHT22;10838;52.350;9.790;2022-09-14T05:36:27;12.30;95.70
9373;DHT22;10838;52.350;9.790;2022-09-14T05:38:54;12.30;95.80
9373;DHT22;10838;52.350;9.790;2022-09-14T05:41:22;12.30;95.80
9373;DHT22;10838;52.350;9.790;2022-09-14T05:43:48;12.30;95.80
9373;DHT22;10838;52.350;9.790;2022-09-14T05:46:16;12.40;95.80
9373;DHT22;10838;52.350;9.790;2022-09-14T05:48:44;12.40;95.80
9373;DHT22;10838;52.350;9.790;2022-09-14T05:51:13;12.40;95.90
9373;DHT22;10838;52.350;9.790;2022-09-14T05:53:41;12.40;95.90
9373;DHT22;10838;52.350;9.790;2022-09-14T05:56:09;12.40;95.90
9373;DHT22;10838;52.350;9.790;2022-09-14T05:58:38;12.40;95.90
9373;DHT22;10838;52.350;9.790;2022-09-14T06:01:06;12.50;95.90
9373;DHT22;10838;52.350;9.790;2022-09-14T06:03:33;12.50;95.90
9373;DHT22;10838;52.350;9.790;2022-09-14T06:05:59;12.50;96.00
9373;DHT22;10838;52.350;9.790;2022-09-14T06:08:26;12.50;96.00
9373;DHT22;10838;52.350;9.790;2022-09-14T06:10:54;12.50;96.00
9373;DHT22;10838;52.350;9.790;2022-09-14T06:13:21;12.60;96.10
9373;DHT22;10838;52.350;9.790;2022-09-14T06:15:48;12.70;96.10
9373;DHT22;10838;52.350;9.790;2022-09-14T06:18:15;12.70;96.10
9373;DHT22;10838;52.350;9.790;2022-09-14T06:20:49;12.80;96.10
9373;DHT22;10838;52.350;9.790;2022-09-14T06:23:15;12.80;96.20
9373;DHT22;10838;52.350;9.790;2022-09-14T06:25:42;12.90;96.20
9373;DHT22;10838;52.350;9.790;2022-09-14T06:28:10;12.90;96.20
9373;DHT22;10838;52.350;9.790;2022-09-14T06:30:36;13.00;96.30
9373;DHT22;10838;52.350;9.790;2022-09-14T06:33:04;13.00;96.30
9373;DHT22;10838;52.350;9.790;2022-09-14T06:35:30;13.10;96.30
9373;DHT22;10838;52.350;9.790;2022-09-14T06:37:57;13.20;96.40
9373;DHT22;10838;52.350;9.790;2022-09-14T06:40:23;13.20;96.40
9373;DHT22;10838;52.350;9.790;2022-09-14T06:42:51;13.30;96.40
9373;DHT22;10838;52.350;9.790;2022-09-14T06:45:19;13.30;96.50
9373;DHT22;10838;52.350;9.790;2022-09-14T06:47:45;13.40;96.50
9373;DHT22;10838;52.350;9.790;2022-09-14T06:50:12;13.50;96.50
9373;DHT22;10838;52.350;9.790;2022-09-14T06:52:39;13.60;96.60
9373;DHT22;10838;52.350;9.790;2022-09-14T06:55:06;13.60;96.60
9373;DHT22;10838;52.350;9.790;2022-09-14T06:57:33;13.70;96.60
9373;DHT22;10838;52.350;9.790;2022-09-14T06:59:59;13.80;96.70
9373;DHT22;10838;52.350;9.790;2022-09-14T07:02:27;13.90;96.70
9373;DHT22;10838;52.350;9.790;2022-09-14T07:04:54;14.00;96.70
9373;DHT22;10838;52.350;9.790;2022-09-14T07:07:21;14.10;96.70
9373;DHT22;10838;52.350;9.790;2022-09-14T07:09:48;14.20;96.70
9373;DHT22;10838;52.350;9.790;2022-09-14T07:12:14;14.30;96.80
9373;DHT22;10838;52.350;9.790;2022-09-14T07:14:41;14.50;96.80
9373;DHT22;10838;52.350;9.790;2022-09-14T07:17:07;14.60;96.80
9373;DHT22;10838;52.350;9.790;2022-09-14T07:19:35;14.80;96.80
9373;DHT22;10838;52.350;9.790;2022-09-14T07:22:02;14.90;96.70
9373;DHT22;10838;52.350;9.790;2022-09-14T07:24:29;15.10;96.70
9373;DHT22;10838;52.350;9.790;2022-09-14T07:26:55;15.20;96.70
9373;DHT22;10838;52.350;9.790;2022-09-14T07:29:22;15.40;96.60
9373;DHT22;10838;52.350;9.790;2022-09-14T07:31:50;15.50;96.60
9373;DHT22;10838;52.350;9.790;2022-09-14T07:34:18;15.60;96.60
9373;DHT22;10838;52.350;9.790;2022-09-14T07:36:46;15.80;96.60
9373;DHT22;10838;52.350;9.790;2022-09-14T07:39:14;15.90;96.50
9373;DHT22;10838;52.350;9.790;2022-09-14T07:41:41;16.10;96.50
9373;DHT22;10838;52.350;9.790;2022-09-14T07:44:12;16.30;96.50
9373;DHT22;10838;52.350;9.790;2022-09-14T07:46:41;16.50;96.40
9373;DHT22;10838;52.350;9.790;2022-09-14T07:49:08;16.60;96.40
9373;DHT22;10838;52.350;9.790;2022-09-14T07:51:36;16.80;96.30
9373;DHT22;10838;52.350;9.790;2022-09-14T07:54:05;16.90;96.20
9373;DHT22;10838;52.350;9.790;2022-09-14T07:56:32;17.10;96.20
9373;DHT22;10838;52.350;9.790;2022-09-14T07:58:59;17.10;96.10
9373;DHT22;10838;52.350;9.790;2022-09-14T08:01:26;17.30;96.00
9373;DHT22;10838;52.350;9.790;2022-09-14T08:03:54;17.30;95.90
9373;DHT22;10838;52.350;9.790;2022-09-14T08:06:24;17.40;95.90
9373;DHT22;10838;52.350;9.790;2022-09-14T08:08:52;17.50;95.80
9373;DHT22;10838;52.350;9.790;2022-09-14T08:11:22;17.60;95.70
9373;DHT22;10838;52.350;9.790;2022-09-14T08:13:51;17.60;95.70
9373;DHT22;10838;52.350;9.790;2022-09-14T08:16:18;17.70;95.70
9373;DHT22;10838;52.350;9.790;2022-09-14T08:18:45;17.80;95.60
9373;DHT22;10838;52.350;9.790;2022-09-14T08:21:14;18.00;95.60
9373;DHT22;10838;52.350;9.790;2022-09-14T08:23:41;18.10;95.60
9373;DHT22;10838;52.350;9.790;2022-09-14T08:26:10;18.20;95.60
9373;DHT22;10838;52.350;9.790;2022-09-14T08:28:38;18.40;95.40
9373;DHT22;10838;52.350;9.790;2022-09-14T08:31:06;18.50;95.30
9373;DHT22;10838;52.350;9.790;2022-09-14T08:33:35;18.60;95.20
9373;DHT22;10838;52.350;9.790;2022-09-14T08:36:02;18.60;95.10
9373;DHT22;10838;52.350;9.790;2022-09-14T08:38:29;18.70;95.00
9373;DHT22;10838;52.350;9.790;2022-09-14T08:40:57;18.70;95.00
9373;DHT22;10838;52.350;9.790;2022-09-14T08:43:25;18.80;94.90
9373;DHT22;10838;52.350;9.790;2022-09-14T08:46:01;18.80;94.90
9373;DHT22;10838;52.350;9.790;2022-09-14T08:48:32;18.80;94.90
9373;DHT22;10838;52.350;9.790;2022-09-14T08:51:00;18.90;94.80
9373;DHT22;10838;52.350;9.790;2022-09-14T08:53:29;18.90;94.80
9373;DHT22;10838;52.350;9.790;2022-09-14T08:55:59;19.00;94.70
9373;DHT22;10838;52.350;9.790;2022-09-14T08:58:32;19.10;94.70
9373;DHT22;10838;52.350;9.790;2022-09-14T09:01:10;19.10;94.60
9373;DHT22;10838;52.350;9.790;2022-09-14T09:03:54;19.30;94.60
9373;DHT22;10838;52.350;9.790;2022-09-14T09:06:30;19.30;94.60
9373;DHT22;10838;52.350;9.790;2022-09-14T09:09:04;19.30;94.60
9373;DHT22;10838;52.350;9.790;2022-09-14T09:11:38;19.30;94.60
9373;DHT22;10838;52.350;9.790;2022-09-14T09:14:13;19.30;94.50
9373;DHT22;10838;52.350;9.790;2022-09-14T09:16:43;19.30;94.50
9373;DHT22;10838;52.350;9.790;2022-09-14T09:19:15;19.40;94.50
9373;DHT22;10838;52.350;9.790;2022-09-14T09:21:45;19.40;94.40
9373;DHT22;10838;52.350;9.790;2022-09-14T09:24:20;19.50;94.30
9373;DHT22;10838;52.350;9.790;2022-09-14T09:26:48;19.40;94.30
9373;DHT22;10838;52.350;9.790;2022-09-14T09:29:14;19.40;94.20
9373;DHT22;10838;52.350;9.790;2022-09-14T09:31:47;19.40;94.20
9373;DHT22;10838;52.350;9.790;2022-09-14T09:34:16;19.40;94.20
9373;DHT22;10838;52.350;9.790;2022-09-14T09:36:46;19.50;94.20
9373;DHT22;10838;52.350;9.790;2022-09-14T09:39:14;19.50;94.10
9373;DHT22;10838;52.350;9.790;2022-09-14T09:41:43;19.50;94.10
9373;DHT22;10838;52.350;9.790;2022-09-14T09:44:11;19.50;94.10
9373;DHT22;10838;52.350;9.790;2022-09-14T09:46:43;19.50;94.00
9373;DHT22;10838;52.350;9.790;2022-09-14T09:49:17;19.50;94.00
9373;DHT22;10838;52.350;9.790;2022-09-14T09:51:45;19.60;93.90
9373;DHT22;10838;52.350;9.790;2022-09-14T09:54:24;19.60;93.90
9373;DHT22;10838;52.350;9.790;2022-09-14T09:56:53;19.60;94.00
9373;DHT22;10838;52.350;9.790;2022-09-14T09:59:26;19.70;93.90
9373;DHT22;10838;52.350;9.790;2022-09-14T10:01:54;19.70;93.90
9373;DHT22;10838;52.350;9.790;2022-09-14T10:04:26;19.80;93.90
9373;DHT22;10838;52.350;9.790;2022-09-14T10:06:54;19.80;93.90
9373;DHT22;10838;52.350;9.790;2022-09-14T10:09:23;19.80;93.90
9373;DHT22;10838;52.350;9.790;2022-09-14T10:11:56;19.90;93.90
9373;DHT22;10838;52.350;9.790;2022-09-14T10:14:27;19.90;93.80
9373;DHT22;10838;52.350;9.790;2022-09-14T10:17:04;19.90;93.70
9373;DHT22;10838;52.350;9.790;2022-09-14T10:19:32;20.00;93.60
9373;DHT22;10838;52.350;9.790;2022-09-14T10:22:18;20.00;93.60
9373;DHT22;10838;52.350;9.790;2022-09-14T10:24:56;20.00;93.50
9373;DHT22;10838;52.350;9.790;2022-09-14T10:27:43;20.00;93.50
9373;DHT22;10838;52.350;9.790;2022-09-14T10:30:14;20.10;93.50
9373;DHT22;10838;52.350;9.790;2022-09-14T10:32:46;20.10;93.40
9373;DHT22;10838;52.350;9.790;2022-09-14T10:35:15;20.10;93.40
9373;DHT22;10838;52.350;9.790;2022-09-14T10:37:53;20.10;93.40
9373;DHT22;10838;52.350;9.790;2022-09-14T10:40:29;20.20;93.30
9373;DHT22;10838;52.350;9.790;2022-09-14T10:43:10;20.20;93.30
9373;DHT22;10838;52.350;9.790;2022-09-14T10:45:40;20.20;93.20
9373;DHT22;10838;52.350;9.790;2022-09-14T10:51:36;20.20;93.20
9373;DHT22;10838;52.350;9.790;2022-09-14T10:54:18;20.20;93.20
9373;DHT22;10838;52.350;9.790;2022-09-14T10:56:58;20.20;93.20
9373;DHT22;10838;52.350;9.790;2022-09-14T10:59:33;20.20;93.20
9373;DHT22;10838;52.350;9.790;2022-09-14T11:02:25;20.20;93.20
9373;DHT22;10838;52.350;9.790;2022-09-14T11:05:07;20.20;93.20
9373;DHT22;10838;52.350;9.790;2022-09-14T11:07:43;20.20;93.30
9373;DHT22;10838;52.350;9.790;2022-09-14T11:10:18;20.30;93.30
9373;DHT22;10838;52.350;9.790;2022-09-14T11:12:53;20.30;93.30
9373;DHT22;10838;52.350;9.790;2022-09-14T11:15:28;20.30;93.20
9373;DHT22;10838;52.350;9.790;2022-09-14T11:18:10;20.30;93.30
9373;DHT22;10838;52.350;9.790;2022-09-14T11:20:44;20.30;93.30
9373;DHT22;10838;52.350;9.790;2022-09-14T11:23:26;20.30;93.30
9373;DHT22;10838;52.350;9.790;2022-09-14T11:25:58;20.40;93.20
9373;DHT22;10838;52.350;9.790;2022-09-14T11:28:28;20.40;93.20
9373;DHT22;10838;52.350;9.790;2022-09-14T11:31:01;20.40;93.20
9373;DHT22;10838;52.350;9.790;2022-09-14T11:33:34;20.40;93.20
9373;DHT22;10838;52.350;9.790;2022-09-14T11:36:06;20.40;93.10
9373;DHT22;10838;52.350;9.790;2022-09-14T11:38:41;20.40;93.10
9373;DHT22;10838;52.350;9.790;2022-09-14T11:41:16;20.40;93.10
9373;DHT22;10838;52.350;9.790;2022-09-14T11:43:48;20.50;93.10
9373;DHT22;10838;52.350;9.790;2022-09-14T11:46:18;20.50;93.10
9373;DHT22;10838;52.350;9.790;2022-09-14T11:48:50;20.50;93.10
9373;DHT22;10838;52.350;9.790;2022-09-14T11:51:21;20.50;93.20
9373;DHT22;10838;52.350;9.790;2022-09-14T11:53:50;20.50;93.20
9373;DHT22;10838;52.350;9.790;2022-09-14T11:56:21;20.50;93.20
9373;DHT22;10838;52.350;9.790;2022-09-14T11:58:52;20.40;93.20
9373;DHT22;10838;52.350;9.790;2022-09-14T12:01:29;20.40;93.20
9373;DHT22;10838;52.350;9.790;2022-09-14T12:04:17;20.40;93.20
9373;DHT22;10838;52.350;9.790;2022-09-14T12:06:49;20.30;93.20
9373;DHT22;10838;52.350;9.790;2022-09-14T12:09:43;20.30;93.20
9373;DHT22;10838;52.350;9.790;2022-09-14T12:12:31;20.30;93.20
9373;DHT22;10838;52.350;9.790;2022-09-14T12:14:59;20.30;93.20
9373;DHT22;10838;52.350;9.790;2022-09-14T12:17:30;20.30;93.20
9373;DHT22;10838;52.350;9.790;2022-09-14T12:23:21;20.30;93.10
9373;DHT22;10838;52.350;9.790;2022-09-14T12:26:10;20.30;93.10
9373;DHT22;10838;52.350;9.790;2022-09-14T12:28:42;20.30;93.10
9373;DHT22;10838;52.350;9.790;2022-09-14T12:31:57;20.30;93.10
9373;DHT22;10838;52.350;9.790;2022-09-14T12:34:25;20.30;93.10
9373;DHT22;10838;52.350;9.790;2022-09-14T12:46:38;20.30;93.20
9373;DHT22;10838;52.350;9.790;2022-09-14T12:49:30;20.20;93.10
9373;DHT22;10838;52.350;9.790;2022-09-14T12:52:03;20.20;93.20
9373;DHT22;10838;52.350;9.790;2022-09-14T12:54:44;20.20;93.20
9373;DHT22;10838;52.350;9.790;2022-09-14T12:57:21;20.10;93.20
9373;DHT22;10838;52.350;9.790;2022-09-14T12:59:54;20.10;93.20
9373;DHT22;10838;52.350;9.790;2022-09-14T13:02:45;20.10;93.20
9373;DHT22;10838;52.350;9.790;2022-09-14T13:05:19;20.10;93.20
9373;DHT22;10838;52.350;9.790;2022-09-14T13:07:48;20.00;93.20
9373;DHT22;10838;52.350;9.790;2022-09-14T13:10:18;20.00;93.20
9373;DHT22;10838;52.350;9.790;2022-09-14T13:12:46;20.00;93.20
9373;DHT22;10838;52.350;9.790;2022-09-14T13:15:20;20.00;93.30
9373;DHT22;10838;52.350;9.790;2022-09-14T13:18:00;20.00;93.30
9373;DHT22;10838;52.350;9.790;2022-09-14T13:20:28;19.90;93.40
9373;DHT22;10838;52.350;9.790;2022-09-14T13:22:55;20.00;93.40
9373;DHT22;10838;52.350;9.790;2022-09-14T13:25:28;19.90;93.30
9373;DHT22;10838;52.350;9.790;2022-09-14T13:27:58;20.00;93.20
9373;DHT22;10838;52.350;9.790;2022-09-14T13:30:26;19.90;93.20
9373;DHT22;10838;52.350;9.790;2022-09-14T13:32:55;19.90;93.20
9373;DHT22;10838;52.350;9.790;2022-09-14T13:35:28;19.90;93.30
9373;DHT22;10838;52.350;9.790;2022-09-14T13:37:56;19.90;93.20
9373;DHT22;10838;52.350;9.790;2022-09-14T13:40:24;19.90;93.20
9373;DHT22;10838;52.350;9.790;2022-09-14T13:42:52;19.90;93.20
9373;DHT22;10838;52.350;9.790;2022-09-14T13:45:19;19.90;93.30
9373;DHT22;10838;52.350;9.790;2022-09-14T13:47:47;19.90;93.30
9373;DHT22;10838;52.350;9.790;2022-09-14T13:50:14;19.90;93.30
9373;DHT22;10838;52.350;9.790;2022-09-14T13:52:42;19.90;93.20
9373;DHT22;10838;52.350;9.790;2022-09-14T13:55:19;19.90;93.20
9373;DHT22;10838;52.350;9.790;2022-09-14T13:58:21;19.80;93.20
9373;DHT22;10838;52.350;9.790;2022-09-14T14:00:53;19.80;93.20
9373;DHT22;10838;52.350;9.790;2022-09-14T14:03:32;19.80;93.20
9373;DHT22;10838;52.350;9.790;2022-09-14T14:06:02;19.80;93.30
9373;DHT22;10838;52.350;9.790;2022-09-14T14:08:35;19.80;93.30
9373;DHT22;10838;52.350;9.790;2022-09-14T14:11:04;19.80;93.30
9373;DHT22;10838;52.350;9.790;2022-09-14T14:13:32;19.80;93.30
9373;DHT22;10838;52.350;9.790;2022-09-14T14:16:13;19.80;93.30
9373;DHT22;10838;52.350;9.790;2022-09-14T14:18:41;19.80;93.30
9373;DHT22;10838;52.350;9.790;2022-09-14T14:21:22;19.80;93.30
9373;DHT22;10838;52.350;9.790;2022-09-14T14:23:52;19.80;93.30
9373;DHT22;10838;52.350;9.790;2022-09-14T14:26:24;19.80;93.20
9373;DHT22;10838;52.350;9.790;2022-09-14T14:28:52;19.80;93.20
9373;DHT22;10838;52.350;9.790;2022-09-14T14:31:20;19.80;93.30
9373;DHT22;10838;52.350;9.790;2022-09-14T14:33:50;19.80;93.30
9373;DHT22;10838;52.350;9.790;2022-09-14T14:36:18;19.70;93.20
9373;DHT22;10838;52.350;9.790;2022-09-14T14:38:45;19.70;93.20
9373;DHT22;10838;52.350;9.790;2022-09-14T14:41:15;19.70;93.20
9373;DHT22;10838;52.350;9.790;2022-09-14T14:43:43;19.70;93.20
9373;DHT22;10838;52.350;9.790;2022-09-14T14:46:11;19.70;93.20
9373;DHT22;10838;52.350;9.790;2022-09-14T14:48:38;19.70;93.20
9373;DHT22;10838;52.350;9.790;2022-09-14T14:51:05;19.70;93.20
9373;DHT22;10838;52.350;9.790;2022-09-14T14:53:32;19.70;93.30
9373;DHT22;10838;52.350;9.790;2022-09-14T14:55:58;19.60;93.30
9373;DHT22;10838;52.350;9.790;2022-09-14T14:58:26;19.60;93.30
9373;DHT22;10838;52.350;9.790;2022-09-14T15:00:53;19.60;93.30
9373;DHT22;10838;52.350;9.790;2022-09-14T15:03:20;19.60;93.30
9373;DHT22;10838;52.350;9.790;2022-09-14T15:05:47;19.60;93.30
9373;DHT22;10838;52.350;9.790;2022-09-14T15:08:15;19.60;93.40
9373;DHT22;10838;52.350;9.790;2022-09-14T15:10:44;19.50;93.40
9373;DHT22;10838;52.350;9.790;2022-09-14T15:13:11;19.50;93.40
9373;DHT22;10838;52.350;9.790;2022-09-14T15:15:40;19.50;93.40
9373;DHT22;10838;52.350;9.790;2022-09-14T15:18:07;19.50;93.30
9373;DHT22;10838;52.350;9.790;2022-09-14T15:20:34;19.50;93.40
9373;DHT22;10838;52.350;9.790;2022-09-14T15:23:00;19.50;93.40
9373;DHT22;10838;52.350;9.790;2022-09-14T15:25:27;19.40;93.40
9373;DHT22;10838;52.350;9.790;2022-09-14T15:27:54;19.40;93.50
9373;DHT22;10838;52.350;9.790;2022-09-14T15:30:20;19.40;93.50
9373;DHT22;10838;52.350;9.790;2022-09-14T15:32:48;19.40;93.50
9373;DHT22;10838;52.350;9.790;2022-09-14T15:35:15;19.40;93.60
9373;DHT22;10838;52.350;9.790;2022-09-14T15:37:41;19.30;93.60
9373;DHT22;10838;52.350;9.790;2022-09-14T15:40:09;19.30;93.70
9373;DHT22;10838;52.350;9.790;2022-09-14T15:42:36;19.30;93.80
9373;DHT22;10838;52.350;9.790;2022-09-14T15:45:03;19.30;93.80
9373;DHT22;10838;52.350;9.790;2022-09-14T15:47:29;19.30;93.80
9373;DHT22;10838;52.350;9.790;2022-09-14T15:49:57;19.20;93.80
9373;DHT22;10838;52.350;9.790;2022-09-14T15:52:24;19.20;93.80
9373;DHT22;10838;52.350;9.790;2022-09-14T15:54:50;19.20;93.80
9373;DHT22;10838;52.350;9.790;2022-09-14T15:57:18;19.20;93.90
9373;DHT22;10838;52.350;9.790;2022-09-14T15:59:45;19.20;93.80
9373;DHT22;10838;52.350;9.790;2022-09-14T16:02:12;19.20;93.80
9373;DHT22;10838;52.350;9.790;2022-09-14T16:04:38;19.20;93.70
9373;DHT22;10838;52.350;9.790;2022-09-14T16:07:07;19.20;93.70
9373;DHT22;10838;52.350;9.790;2022-09-14T16:09:35;19.20;93.60
9373;DHT22;10838;52.350;9.790;2022-09-14T16:12:02;19.20;93.70
9373;DHT22;10838;52.350;9.790;2022-09-14T16:14:29;19.20;93.80
9373;DHT22;10838;52.350;9.790;2022-09-14T16:16:55;19.20;93.80
9373;DHT22;10838;52.350;9.790;2022-09-14T16:19:22;19.20;93.90